createdAt,value
2022-09-26T00:01:45.812Z,98314.23
2022-09-26T00:04:25.269Z,98310.51
2022-09-26T00:06:57.414Z,98306.16
2022-09-26T00:09:27.351Z,98299.00
2022-09-26T00:11:56.145Z,98298.36
2022-09-26T00:14:27.693Z,98300.22
2022-09-26T00:16:56.555Z,98299.95
2022-09-26T00:19:25.419Z,98296.41
2022-09-26T00:21:53.736Z,98294.45
2022-09-26T00:24:21.614Z,98294.43
2022-09-26T00:26:51.308Z,98288.77
2022-09-26T00:29:19.133Z,98289.05
2022-09-26T00:31:49.208Z,98287.05
2022-09-26T00:34:19.994Z,98282.84
2022-09-26T00:36:49.721Z,98286.20
2022-09-26T00:39:18.039Z,98285.20
2022-09-26T00:41:45.919Z,98278.80
2022-09-26T00:44:45.220Z,98271.61
2022-09-26T00:47:29.713Z,98266.33
2022-09-26T00:50:10.857Z,98260.47
2022-09-26T00:53:12.548Z,98257.96
2022-09-26T00:55:47.270Z,98253.83
2022-09-26T00:58:20.373Z,98255.83
2022-09-26T01:00:50.019Z,98256.91
2022-09-26T01:03:20.726Z,98256.33
2022-09-26T01:05:49.233Z,98255.01
2022-09-26T01:08:22.522Z,98257.38
2022-09-26T01:10:50.697Z,98257.13
2022-09-26T01:13:18.585Z,98256.02
2022-09-26T01:15:46.340Z,98252.38
2022-09-26T01:18:14.288Z,98246.17
2022-09-26T01:20:49.487Z,98249.12
2022-09-26T01:23:42.306Z,98242.63
2022-09-26T01:26:24.089Z,98238.92
2022-09-26T01:29:26.419Z,98237.22
2022-09-26T01:32:39.732Z,98233.92
2022-09-26T01:35:36.677Z,98229.21
2022-09-26T01:38:37.649Z,98228.66
2022-09-26T01:41:05.553Z,98226.59
2022-09-26T01:44:02.507Z,98225.02
2022-09-26T01:46:40.831Z,98228.31
2022-09-26T01:49:44.009Z,98230.34
2022-09-26T01:52:35.053Z,98226.38
2022-09-26T01:55:28.223Z,98229.27
2022-09-26T01:58:02.215Z,98229.17
2022-09-26T02:00:31.496Z,98225.91
2022-09-26T02:03:01.348Z,98228.11
2022-09-26T02:05:44.859Z,98225.30
2022-09-26T02:08:13.044Z,98218.20
2022-09-26T02:11:06.961Z,98214.15
2022-09-26T02:14:12.121Z,98212.14
2022-09-26T02:16:47.563Z,98205.48
2022-09-26T02:19:29.783Z,98207.38
2022-09-26T02:21:59.141Z,98207.26
2022-09-26T02:24:28.566Z,98207.06
2022-09-26T02:26:58.082Z,98207.44
2022-09-26T02:29:26.413Z,98209.01
2022-09-26T02:32:04.109Z,98205.16
2022-09-26T02:34:32.305Z,98200.39
2022-09-26T02:37:01.334Z,98199.39
2022-09-26T02:39:33.943Z,98198.56
2022-09-26T02:42:24.682Z,98196.30
2022-09-26T02:45:28.175Z,98193.38
2022-09-26T02:48:29.081Z,98186.71
2022-09-26T02:51:33.436Z,98188.52
2022-09-26T02:54:22.584Z,98183.58
2022-09-26T02:57:06.435Z,98181.85
2022-09-26T02:59:49.324Z,98183.98
2022-09-26T03:02:24.738Z,98178.48
2022-09-26T03:05:18.442Z,98178.09
2022-09-26T03:07:56.998Z,98175.38
2022-09-26T03:10:29.239Z,98168.08
2022-09-26T03:13:05.511Z,98162.80
2022-09-26T03:15:35.716Z,98159.02
2022-09-26T03:18:10.594Z,98157.54
2022-09-26T03:20:38.760Z,98156.22
2022-09-26T03:23:06.577Z,98154.39
2022-09-26T03:25:34.488Z,98153.44
2022-09-26T03:28:06.275Z,98151.09
2022-09-26T03:30:34.895Z,98154.79
2022-09-26T03:33:21.751Z,98154.05
2022-09-26T03:35:49.995Z,98153.52
2022-09-26T03:38:17.851Z,98154.27
2022-09-26T03:40:53.957Z,98159.58
2022-09-26T03:43:56.633Z,98156.66
2022-09-26T03:46:25.592Z,98154.84
2022-09-26T03:48:53.744Z,98155.30
2022-09-26T03:51:22.073Z,98150.27
2022-09-26T03:53:50.552Z,98151.98
2022-09-26T03:56:21.033Z,98152.95
2022-09-26T03:58:51.650Z,98150.77
2022-09-26T04:01:22.837Z,98148.32
2022-09-26T04:03:51.472Z,98145.63
2022-09-26T04:06:21.193Z,98147.73
2022-09-26T04:08:52.697Z,98146.77
2022-09-26T04:11:23.088Z,98148.19
2022-09-26T04:13:53.579Z,98142.75
2022-09-26T04:16:26.283Z,98140.16
2022-09-26T04:19:00.114Z,98139.33
2022-09-26T04:21:29.852Z,98143.67
2022-09-26T04:23:59.539Z,98144.63
2022-09-26T04:26:30.320Z,98144.36
2022-09-26T04:28:59.206Z,98145.42
2022-09-26T04:31:45.732Z,98142.81
2022-09-26T04:34:17.149Z,98139.48
2022-09-26T04:36:45.717Z,98135.38
2022-09-26T04:39:14.829Z,98131.01
2022-09-26T04:41:43.275Z,98128.14
2022-09-26T04:44:15.359Z,98127.73
2022-09-26T04:46:44.680Z,98124.49
2022-09-26T04:49:22.692Z,98125.13
2022-09-26T04:51:52.224Z,98125.98
2022-09-26T04:54:20.571Z,98122.86
2022-09-26T04:56:49.726Z,98120.23
2022-09-26T04:59:17.849Z,98122.34
2022-09-26T05:01:55.688Z,98121.64
2022-09-26T05:04:34.184Z,98119.51
2022-09-26T05:07:02.194Z,98119.05
2022-09-26T05:09:35.940Z,98122.11
2022-09-26T05:12:08.986Z,98126.16
2022-09-26T05:14:38.251Z,98129.00
2022-09-26T05:17:06.543Z,98134.39
2022-09-26T05:19:34.824Z,98134.66
2022-09-26T05:22:21.583Z,98136.05
2022-09-26T05:25:09.612Z,98135.27
2022-09-26T05:27:37.900Z,98129.89
2022-09-26T05:30:07.540Z,98126.77
2022-09-26T05:32:35.448Z,98130.45
2022-09-26T05:35:05.732Z,98131.30
2022-09-26T05:37:35.148Z,98131.17
2022-09-26T05:40:22.240Z,98131.61
2022-09-26T05:42:51.861Z,98136.02
2022-09-26T05:45:20.114Z,98139.20
2022-09-26T05:47:48.837Z,98141.50
2022-09-26T05:50:22.492Z,98143.15
2022-09-26T05:52:51.350Z,98139.35
2022-09-26T05:55:26.390Z,98139.45
2022-09-26T05:58:07.878Z,98139.27
2022-09-26T06:00:54.793Z,98135.84
2022-09-26T06:03:23.850Z,98137.07
2022-09-26T06:06:06.112Z,98139.55
2022-09-26T06:08:36.809Z,98138.13
2022-09-26T06:11:31.144Z,98140.64
2022-09-26T06:14:01.129Z,98139.16
2022-09-26T06:16:29.956Z,98138.98
2022-09-26T06:18:58.534Z,98141.88
2022-09-26T06:21:27.644Z,98141.73
2022-09-26T06:24:06.284Z,98143.80
2022-09-26T06:26:34.269Z,98142.09
2022-09-26T06:29:04.479Z,98145.17
2022-09-26T06:31:37.833Z,98144.95
2022-09-26T06:34:14.906Z,98144.55
2022-09-26T06:36:49.871Z,98145.66
2022-09-26T06:39:19.294Z,98148.25
2022-09-26T06:41:48.356Z,98145.84
2022-09-26T06:44:30.201Z,98144.09
2022-09-26T06:47:30.433Z,98144.33
2022-09-26T06:50:25.005Z,98141.75
2022-09-26T06:52:57.954Z,98141.75
2022-09-26T06:55:26.340Z,98148.27
2022-09-26T06:57:54.397Z,98147.80
2022-09-26T07:00:26.460Z,98147.23
2022-09-26T07:03:08.429Z,98146.86
2022-09-26T07:05:59.384Z,98149.84
2022-09-26T07:14:06.135Z,98143.13
2022-09-26T07:16:35.676Z,98138.06
2022-09-26T07:19:20.440Z,98138.45
2022-09-26T07:22:03.721Z,98141.23
2022-09-26T07:24:35.846Z,98143.05
2022-09-26T07:27:04.112Z,98139.92
2022-09-26T07:29:33.079Z,98138.54
2022-09-26T07:32:02.477Z,98137.77
2022-09-26T07:34:42.955Z,98141.22
2022-09-26T07:37:13.022Z,98139.05
2022-09-26T07:39:41.800Z,98139.30
2022-09-26T07:42:11.041Z,98141.34
2022-09-26T07:45:17.429Z,98139.92
2022-09-26T07:47:46.462Z,98142.77
2022-09-26T07:50:45.091Z,98144.36
2022-09-26T07:53:29.919Z,98142.33
2022-09-26T07:56:20.834Z,98141.70
2022-09-26T07:59:11.562Z,98137.67
2022-09-26T08:01:59.249Z,98132.05
2022-09-26T08:04:33.188Z,98136.20
2022-09-26T08:07:04.876Z,98134.42
2022-09-26T08:09:37.433Z,98139.09
2022-09-26T08:12:37.982Z,98138.91
2022-09-26T08:15:24.544Z,98136.62
2022-09-26T08:18:03.178Z,98137.67
2022-09-26T08:20:32.468Z,98139.14
2022-09-26T08:23:00.696Z,98143.88
2022-09-26T08:25:30.508Z,98145.59
2022-09-26T08:28:21.823Z,98145.05
2022-09-26T08:30:51.138Z,98145.27
2022-09-26T08:33:20.703Z,98147.20
2022-09-26T08:35:50.119Z,98145.45
2022-09-26T08:38:39.403Z,98150.40
2022-09-26T08:41:50.001Z,98149.83
2022-09-26T08:45:02.043Z,98145.27
2022-09-26T08:48:14.893Z,98148.00
2022-09-26T08:51:35.107Z,98143.34
2022-09-26T08:54:13.147Z,98147.31
2022-09-26T08:56:46.218Z,98145.89
2022-09-26T08:59:39.677Z,98144.70
2022-09-26T09:02:21.219Z,98151.26
2022-09-26T09:05:03.113Z,98145.19
2022-09-26T09:07:32.396Z,98142.39
2022-09-26T09:10:06.354Z,98150.58
2022-09-26T09:13:07.898Z,98153.48
2022-09-26T09:16:25.094Z,98150.89
2022-09-26T09:19:34.509Z,98147.17
2022-09-26T09:22:47.078Z,98146.55
2022-09-26T09:25:25.243Z,98148.78
2022-09-26T09:28:23.253Z,98149.59
2022-09-26T09:31:02.549Z,98144.79
2022-09-26T09:34:00.440Z,98142.90
2022-09-26T09:36:59.898Z,98151.44
2022-09-26T09:39:50.177Z,98154.30
2022-09-26T09:42:38.146Z,98153.08
2022-09-26T09:45:15.907Z,98156.67
2022-09-26T09:47:47.226Z,98158.71
2022-09-26T09:50:40.648Z,98162.50
2022-09-26T09:53:18.645Z,98163.72
2022-09-26T09:55:53.891Z,98162.13
2022-09-26T09:58:42.958Z,98161.30
2022-09-26T10:01:32.483Z,98161.83
2022-09-26T10:04:23.310Z,98166.36
2022-09-26T10:06:51.679Z,98166.64
2022-09-26T10:09:35.516Z,98172.45
2022-09-26T10:12:29.741Z,98167.05
2022-09-26T10:15:23.756Z,98166.99
2022-09-26T10:18:25.420Z,98171.72
2022-09-26T10:21:12.322Z,98172.48
2022-09-26T10:23:47.589Z,98163.73
2022-09-26T10:26:31.135Z,98166.25
2022-09-26T10:29:07.063Z,98167.77
2022-09-26T10:31:42.319Z,98168.80
2022-09-26T10:34:28.609Z,98166.11
2022-09-26T10:37:19.726Z,98158.77
2022-09-26T10:40:13.546Z,98157.94
2022-09-26T10:42:46.885Z,98161.42
2022-09-26T10:45:27.404Z,98154.75
2022-09-26T10:48:22.129Z,98154.54
2022-09-26T10:51:11.926Z,98147.91
2022-09-26T10:53:48.312Z,98148.27
2022-09-26T10:56:26.342Z,98149.77
2022-09-26T10:59:06.390Z,98151.65
2022-09-26T11:01:43.537Z,98154.45
2022-09-26T11:04:36.593Z,98151.56
2022-09-26T11:07:36.185Z,98146.71
2022-09-26T11:10:27.075Z,98142.08
2022-09-26T11:13:19.299Z,98150.08
2022-09-26T11:16:06.476Z,98155.60
2022-09-26T11:18:39.817Z,98157.81
2022-09-26T11:21:28.683Z,98155.63
2022-09-26T11:24:03.313Z,98159.25
2022-09-26T11:27:03.497Z,98155.37
2022-09-26T11:30:09.360Z,98153.99
2022-09-26T11:32:44.032Z,98148.63
2022-09-26T11:36:01.787Z,98146.31
2022-09-26T11:38:55.663Z,98146.87
2022-09-26T11:42:04.281Z,98140.09
2022-09-26T11:45:08.371Z,98131.88
2022-09-26T11:48:20.164Z,98123.81
2022-09-26T11:51:24.027Z,98117.88
2022-09-26T11:54:10.070Z,98114.64
2022-09-26T11:57:03.309Z,98114.64
2022-09-26T11:59:58.919Z,98116.41
2022-09-26T12:02:54.484Z,98112.44
2022-09-26T12:05:45.748Z,98110.83
2022-09-26T12:08:40.877Z,98116.12
2022-09-26T12:11:21.138Z,98114.80
2022-09-26T12:14:03.449Z,98117.80
2022-09-26T12:16:52.195Z,98116.13
2022-09-26T12:19:52.634Z,98112.86
2022-09-26T12:22:46.438Z,98110.50
2022-09-26T12:25:35.106Z,98106.50
2022-09-26T12:28:16.559Z,98103.14
2022-09-26T12:31:01.096Z,98099.28
2022-09-26T12:34:05.043Z,98093.00
2022-09-26T12:36:48.040Z,98093.34
2022-09-26T12:39:32.124Z,98092.54
2022-09-26T12:42:00.169Z,98093.55
2022-09-26T12:44:42.808Z,98094.06
2022-09-26T12:47:38.205Z,98096.77
2022-09-26T12:50:31.273Z,98094.34
2022-09-26T12:53:28.430Z,98090.50
2022-09-26T12:56:07.346Z,98088.05
2022-09-26T12:59:16.230Z,98088.40
2022-09-26T13:02:07.284Z,98079.79
2022-09-26T13:05:04.847Z,98073.45
2022-09-26T13:07:46.402Z,98062.02
2022-09-26T13:10:28.923Z,98061.79
2022-09-26T13:13:30.285Z,98060.52
2022-09-26T13:16:36.686Z,98065.16
2022-09-26T13:19:23.877Z,98063.41
2022-09-26T13:22:05.679Z,98071.06
2022-09-26T13:24:46.935Z,98071.27
2022-09-26T13:27:22.261Z,98067.40
2022-09-26T13:30:06.267Z,98065.30
2022-09-26T13:32:49.202Z,98061.76
2022-09-26T13:35:23.826Z,98064.19
2022-09-26T13:38:20.331Z,98059.84
2022-09-26T13:41:33.983Z,98056.67
2022-09-26T13:44:22.988Z,98059.65
2022-09-26T13:47:10.188Z,98056.77
2022-09-26T13:49:56.857Z,98051.29
2022-09-26T13:52:52.981Z,98048.44
2022-09-26T13:55:21.914Z,98041.83
2022-09-26T13:58:00.192Z,98041.08
2022-09-26T14:00:41.003Z,98042.63
2022-09-26T14:03:19.297Z,98038.29
2022-09-26T14:05:52.612Z,98039.93
2022-09-26T14:08:55.784Z,98036.23
2022-09-26T14:11:43.911Z,98031.92
2022-09-26T14:14:17.205Z,98026.47
2022-09-26T14:16:46.182Z,98023.64
2022-09-26T14:19:38.443Z,98019.89
2022-09-26T14:22:25.217Z,98013.54
2022-09-26T14:24:54.580Z,98008.72
2022-09-26T14:27:43.007Z,98004.95
2022-09-26T14:30:30.862Z,98003.84
2022-09-26T14:33:13.214Z,98001.48
2022-09-26T14:35:43.329Z,97996.99
2022-09-26T14:38:21.310Z,97991.42
2022-09-26T14:41:18.510Z,97985.05
2022-09-26T14:43:49.774Z,97980.55
2022-09-26T14:46:23.206Z,97977.30
2022-09-26T14:49:01.879Z,97974.54
2022-09-26T14:51:37.308Z,97974.52
2022-09-26T14:54:27.861Z,97972.13
2022-09-26T14:57:21.035Z,97970.29
2022-09-26T14:59:51.316Z,97970.55
2022-09-26T15:02:20.774Z,97969.70
2022-09-26T15:05:00.465Z,97969.40
2022-09-26T15:07:34.812Z,97970.28
2022-09-26T15:10:20.568Z,97967.73
2022-09-26T15:13:03.106Z,97957.36
2022-09-26T15:15:39.049Z,97958.70
2022-09-26T15:18:27.185Z,97956.20
2022-09-26T15:21:04.401Z,97953.84
2022-09-26T15:23:44.480Z,97950.02
2022-09-26T15:26:18.189Z,97950.13
2022-09-26T15:28:49.494Z,97956.19
2022-09-26T15:31:43.856Z,97954.06
2022-09-26T15:34:19.693Z,97947.11
2022-09-26T15:36:55.990Z,97944.30
2022-09-26T15:39:30.087Z,97946.40
2022-09-26T15:42:19.024Z,97945.75
2022-09-26T15:45:25.745Z,97939.20
2022-09-26T15:47:56.561Z,97939.60
2022-09-26T15:51:06.480Z,97936.72
2022-09-26T15:53:37.478Z,97937.70
2022-09-26T15:56:18.923Z,97937.26
2022-09-26T15:58:55.156Z,97936.37
2022-09-26T16:01:29.455Z,97939.11
2022-09-26T16:04:01.063Z,97939.36
2022-09-26T16:06:31.227Z,97939.02
2022-09-26T16:09:14.677Z,97935.25
2022-09-26T16:11:56.394Z,97933.67
2022-09-26T16:14:30.620Z,97931.80
2022-09-26T16:17:30.275Z,97938.11
2022-09-26T16:20:21.991Z,97936.39
2022-09-26T16:23:00.314Z,97932.38
2022-09-26T16:25:56.541Z,97929.39
2022-09-26T16:28:48.419Z,97927.71
2022-09-26T16:31:24.716Z,97925.88
2022-09-26T16:33:55.177Z,97922.64
2022-09-26T16:36:25.142Z,97922.24
2022-09-26T16:38:56.495Z,97924.19
2022-09-26T16:41:59.373Z,97924.67
2022-09-26T16:44:34.372Z,97927.23
2022-09-26T16:47:07.578Z,97928.38
2022-09-26T16:49:48.904Z,97924.98
2022-09-26T16:52:36.515Z,97924.46
2022-09-26T16:55:07.518Z,97926.66
2022-09-26T16:57:38.656Z,97926.42
2022-09-26T17:00:39.425Z,97927.69
2022-09-26T17:03:34.835Z,97938.86
2022-09-26T17:06:02.718Z,97939.93
2022-09-26T17:08:30.592Z,97943.02
2022-09-26T17:11:03.824Z,97937.64
2022-09-26T17:13:45.943Z,97934.23
2022-09-26T17:16:40.904Z,97934.70
2022-09-26T17:19:29.397Z,97937.30
2022-09-26T17:22:01.659Z,97938.05
2022-09-26T17:24:31.004Z,97943.30
2022-09-26T17:27:01.821Z,97936.70
2022-09-26T17:29:40.201Z,97937.63
2022-09-26T17:32:49.828Z,97933.95
2022-09-26T17:35:25.383Z,97934.09
2022-09-26T17:37:55.664Z,97935.39
2022-09-26T17:40:29.744Z,97933.13
2022-09-26T17:43:00.426Z,97932.63
2022-09-26T17:45:34.307Z,97932.08
2022-09-26T17:48:05.655Z,97925.45
2022-09-26T17:50:35.751Z,97925.60
2022-09-26T17:53:07.462Z,97922.61
2022-09-26T17:55:35.775Z,97919.05
2022-09-26T17:58:05.264Z,97918.37
2022-09-26T18:00:41.512Z,97917.23
2022-09-26T18:03:27.055Z,97913.73
2022-09-26T18:05:56.293Z,97915.70
2022-09-26T18:08:30.880Z,97912.98
2022-09-26T18:11:08.229Z,97911.90
2022-09-26T18:13:45.697Z,97911.17
2022-09-26T18:16:15.309Z,97917.91
2022-09-26T18:18:44.442Z,97919.58
2022-09-26T18:21:18.876Z,97916.64
2022-09-26T18:24:01.935Z,97916.36
2022-09-26T18:26:33.884Z,97911.08
2022-09-26T18:29:07.911Z,97904.56
2022-09-26T18:31:41.318Z,97901.91
2022-09-26T18:34:20.737Z,97898.87
2022-09-26T18:36:50.893Z,97902.46
2022-09-26T18:39:19.364Z,97905.90
2022-09-26T18:41:51.315Z,97909.34
2022-09-26T18:44:21.270Z,97909.60
2022-09-26T18:46:50.531Z,97908.96
2022-09-26T18:49:19.900Z,97907.48
2022-09-26T18:51:48.613Z,97905.55
2022-09-26T18:54:17.975Z,97907.16
2022-09-26T18:57:06.778Z,97910.86
2022-09-26T18:59:35.200Z,97909.78
2022-09-26T19:02:05.355Z,97904.73
2022-09-26T19:04:34.190Z,97901.98
2022-09-26T19:07:07.177Z,97900.34
2022-09-26T19:09:36.445Z,97898.08
2022-09-26T19:12:06.734Z,97897.77
2022-09-26T19:14:36.311Z,97898.89
2022-09-26T19:17:04.966Z,97903.18
2022-09-26T19:19:33.586Z,97905.36
2022-09-26T19:22:10.449Z,97904.64
2022-09-26T19:24:53.749Z,97899.27
2022-09-26T19:27:25.247Z,97896.40
2022-09-26T19:30:04.928Z,97895.02
2022-09-26T19:32:39.209Z,97896.23
2022-09-26T19:35:17.416Z,97897.73
2022-09-26T19:37:45.344Z,97897.17
2022-09-26T19:40:16.109Z,97891.91
2022-09-26T19:42:44.251Z,97889.52
2022-09-26T19:45:13.645Z,97888.66
2022-09-26T19:47:45.703Z,97884.48
2022-09-26T19:50:21.117Z,97879.88
2022-09-26T19:52:51.914Z,97876.08
2022-09-26T19:55:26.795Z,97872.27
2022-09-26T19:57:58.621Z,97872.73
2022-09-26T20:00:27.521Z,97873.20
2022-09-26T20:02:55.458Z,97872.78
2022-09-26T20:05:26.078Z,97871.33
2022-09-26T20:07:53.951Z,97870.58
2022-09-26T20:10:25.431Z,97865.41
2022-09-26T20:12:53.971Z,97859.20
2022-09-26T20:15:22.585Z,97855.41
2022-09-26T20:17:51.241Z,97855.20
2022-09-26T20:20:23.151Z,97852.12
2022-09-26T20:22:55.783Z,97852.02
2022-09-26T20:25:27.418Z,97845.81
2022-09-26T20:27:56.402Z,97839.69
2022-09-26T20:30:44.846Z,97834.70
2022-09-26T20:33:13.519Z,97834.52
2022-09-26T20:35:44.550Z,97832.89
2022-09-26T20:38:32.160Z,97832.23
2022-09-26T20:41:10.558Z,97832.73
2022-09-26T20:43:46.869Z,97831.92
2022-09-26T20:46:15.345Z,97829.72
2022-09-26T20:48:45.921Z,97830.97
2022-09-26T20:51:28.282Z,97826.75
2022-09-26T20:54:00.809Z,97824.89
2022-09-26T20:56:29.009Z,97825.72
2022-09-26T20:58:58.629Z,97823.36
2022-09-26T21:01:28.712Z,97823.93
2022-09-26T21:03:56.868Z,97821.70
2022-09-26T21:06:34.540Z,97821.00
2022-09-26T21:09:04.240Z,97818.20
2022-09-26T21:11:32.218Z,97814.33
2022-09-26T21:14:00.176Z,97807.46
2022-09-26T21:16:27.986Z,97808.94
2022-09-26T21:18:55.981Z,97806.83
2022-09-26T21:21:29.559Z,97800.64
2022-09-26T21:24:24.258Z,97797.20
2022-09-26T21:26:52.863Z,97796.14
2022-09-26T21:29:20.700Z,97794.70
2022-09-26T21:31:51.462Z,97801.71
2022-09-26T21:34:24.940Z,97800.86
2022-09-26T21:36:57.159Z,97794.02
2022-09-26T21:39:25.619Z,97789.77
2022-09-26T21:41:59.027Z,97786.36
2022-09-26T21:44:38.133Z,97785.08
2022-09-26T21:47:06.695Z,97779.68
2022-09-26T21:49:35.121Z,97780.66
2022-09-26T21:52:28.535Z,97777.77
2022-09-26T21:55:00.051Z,97778.34
2022-09-26T21:57:33.432Z,97776.08
2022-09-26T22:00:05.253Z,97775.30
2022-09-26T22:02:41.992Z,97782.20
2022-09-26T22:05:12.029Z,97779.27
2022-09-26T22:07:39.822Z,97774.88
2022-09-26T22:10:08.110Z,97773.46
2022-09-26T22:12:36.285Z,97768.75
2022-09-26T22:15:07.246Z,97765.07
2022-09-26T22:17:35.382Z,97760.52
2022-09-26T22:20:05.936Z,97755.75
2022-09-26T22:22:34.562Z,97750.03
2022-09-26T22:25:03.323Z,97747.17
2022-09-26T22:27:36.305Z,97741.98
2022-09-26T22:30:06.190Z,97738.64
2022-09-26T22:32:34.637Z,97737.85
2022-09-26T22:35:02.713Z,97739.05
2022-09-26T22:37:30.464Z,97743.13
2022-09-26T22:39:58.826Z,97738.21
2022-09-26T22:42:28.420Z,97734.79
2022-09-26T22:44:56.220Z,97731.94
2022-09-26T22:47:25.517Z,97727.30
2022-09-26T22:49:54.416Z,97721.14
2022-09-26T22:52:22.803Z,97719.08
2022-09-26T22:54:50.724Z,97718.40
2022-09-26T22:57:19.104Z,97711.80
2022-09-26T22:59:47.619Z,97711.08
2022-09-26T23:02:15.511Z,97708.81
2022-09-26T23:04:49.191Z,97704.04
2022-09-26T23:07:18.864Z,97700.45
2022-09-26T23:09:47.141Z,97695.84
2022-09-26T23:12:15.407Z,97697.57
2022-09-26T23:14:45.043Z,97703.08
2022-09-26T23:17:13.049Z,97699.62
2022-09-26T23:19:41.575Z,97697.08
2022-09-26T23:22:09.363Z,97703.16
2022-09-26T23:24:37.280Z,97696.77
2022-09-26T23:27:05.605Z,97692.48
2022-09-26T23:29:33.371Z,97698.65
2022-09-26T23:32:01.972Z,97705.20
2022-09-26T23:34:29.818Z,97713.34
2022-09-26T23:36:57.645Z,97704.77
2022-09-26T23:39:25.451Z,97704.53
2022-09-26T23:41:54.961Z,97701.41
2022-09-26T23:44:22.785Z,97693.21
2022-09-26T23:46:50.707Z,97684.83
2022-09-26T23:49:18.555Z,97677.20
2022-09-26T23:51:47.763Z,97676.71
2022-09-26T23:54:15.544Z,97673.39
2022-09-26T23:56:44.335Z,97666.04
2022-09-26T23:59:13.519Z,97657.97
